Time;durP1;ratioP1;P1;durP2;ratioP2;P2;SDS_P1;SDS_P2;PMS_P1;PMS_P2;Temp;Humidity;BMP_temperature;BMP_pressure;BME280_temperature;BME280_humidity;BME280_pressure;Samples;Min_cycle;Max_cycle;Signal;HPM_P1;HPM_P2
2024/04/18 00:01:09;;;;;;;6.33;4.30;;;;;;;9.74;55.34;96904.81;5447177;26;20235;-68
2024/04/18 00:03:34;;;;;;;5.47;3.53;;;;;;;9.74;55.67;96900.41;5447249;26;20580;-72
2024/04/18 00:06:00;;;;;;;5.40;3.20;;;;;;;9.80;55.25;96902.41;5446833;26;20335;-70
2024/04/18 00:08:25;;;;;;;3.40;3.00;;;;;;;9.87;54.91;96905.22;5447022;26;20306;-69
2024/04/18 00:10:53;;;;;;;7.33;5.53;;;;;;;9.90;54.95;96904.91;5445270;26;20290;-72
2024/04/18 00:13:19;;;;;;;6.10;4.47;;;;;;;9.90;55.03;96915.38;5446816;26;20266;-71
2024/04/18 00:15:44;;;;;;;3.97;3.60;;;;;;;9.91;55.14;96910.94;5414754;26;20440;-68
2024/04/18 00:18:10;;;;;;;6.27;3.53;;;;;;;9.92;54.81;96913.44;5445298;26;20568;-70
2024/04/18 00:20:35;;;;;;;4.87;3.30;;;;;;;9.95;55.01;96913.13;5446015;26;20232;-72
2024/04/18 00:23:01;;;;;;;3.47;3.07;;;;;;;9.95;55.19;96918.38;5444747;26;20319;-69
2024/04/18 00:25:30;;;;;;;3.53;3.23;;;;;;;9.98;55.68;96912.00;5445591;26;20285;-68
2024/04/18 00:27:55;;;;;;;7.67;3.93;;;;;;;9.95;56.07;96910.50;5446397;26;20270;-72
2024/04/18 00:30:21;;;;;;;5.17;3.43;;;;;;;9.87;55.93;96910.44;5446370;26;20453;-70
2024/04/18 00:32:46;;;;;;;3.27;2.97;;;;;;;9.74;56.14;96910.88;5446535;26;20281;-69
2024/04/18 00:35:12;;;;;;;4.90;3.60;;;;;;;9.73;56.46;96908.41;5445731;26;20235;-72
2024/04/18 00:37:37;;;;;;;4.07;3.67;;;;;;;9.77;56.00;96913.16;5445765;26;20310;-70
2024/04/18 00:40:03;;;;;;;5.90;3.97;;;;;;;9.79;56.37;96911.22;5446073;26;20266;-70
2024/04/18 00:42:28;;;;;;;4.00;3.33;;;;;;;9.76;56.56;96911.56;5446388;26;21045;-72
2024/04/18 00:44:54;;;;;;;3.67;3.33;;;;;;;9.73;55.88;96904.00;5446233;26;20231;-71
2024/04/18 00:47:19;;;;;;;5.17;3.60;;;;;;;9.76;55.92;96902.88;5446058;26;20729;-72
2024/04/18 00:49:45;;;;;;;4.40;4.00;;;;;;;9.80;56.04;96894.53;5445594;26;20247;-70
2024/04/18 00:52:11;;;;;;;5.73;3.40;;;;;;;9.80;55.63;96905.00;5444107;26;21017;-70
2024/04/18 00:54:37;;;;;;;4.83;3.83;;;;;;;9.78;55.77;96906.16;5444060;26;20232;-71
2024/04/18 00:57:02;;;;;;;3.60;3.30;;;;;;;9.77;55.68;96900.09;5445710;26;20467;-69
2024/04/18 00:59:28;;;;;;;5.37;4.10;;;;;;;9.80;56.07;96904.22;5414228;26;20535;-69
2024/04/18 01:01:53;;;;;;;6.37;4.37;;;;;;;9.83;55.70;96898.63;5444079;26;20246;-70
2024/04/18 01:04:19;;;;;;;4.40;3.87;;;;;;;9.86;56.05;96900.16;5446677;26;20320;-71
2024/04/18 01:06:47;;;;;;;4.13;3.80;;;;;;;9.70;56.41;96904.31;5446066;26;20231;-71
2024/04/18 01:09:13;;;;;;;4.20;3.80;;;;;;;9.74;56.31;96904.81;5446057;26;20299;-70
2024/04/18 01:11:38;;;;;;;4.20;3.67;;;;;;;9.78;56.51;96903.53;5445798;26;20506;-70
2024/04/18 01:14:10;;;;;;;3.90;3.50;;;;;;;9.79;56.90;96902.56;5444148;26;20724;-71
2024/04/18 01:16:36;;;;;;;5.03;3.60;;;;;;;9.71;56.79;96900.72;5443571;26;20236;-70
2024/04/18 01:19:03;;;;;;;4.07;3.67;;;;;;;9.75;56.91;96898.59;5445905;26;20452;-68
2024/04/18 01:21:28;;;;;;;4.60;3.77;;;;;;;9.80;56.80;96898.97;5414338;26;20572;-71
2024/04/18 01:23:54;;;;;;;4.80;4.30;;;;;;;9.81;56.86;96903.22;5445873;26;20573;-71
2024/04/18 01:26:19;;;;;;;4.20;3.80;;;;;;;9.72;57.04;96906.75;5443493;26;20290;-71
2024/04/18 01:28:45;;;;;;;5.40;3.50;;;;;;;9.64;57.23;96903.13;5445125;26;20298;-70
2024/04/18 01:31:10;;;;;;;3.77;3.43;;;;;;;9.58;57.43;96905.53;5445888;26;20340;-71
2024/04/18 01:33:35;;;;;;;4.23;3.73;;;;;;;9.57;57.87;96899.50;5445452;26;20282;-70
2024/04/18 01:36:02;;;;;;;4.03;3.63;;;;;;;9.54;57.83;96902.41;5445641;26;20231;-70
2024/04/18 01:38:27;;;;;;;6.50;4.07;;;;;;;9.49;57.64;96900.25;5448003;26;20570;-70
2024/04/18 01:40:53;;;;;;;5.07;3.70;;;;;;;9.50;57.78;96906.28;5443627;26;20246;-71
2024/04/18 01:43:18;;;;;;;4.47;4.03;;;;;;;9.37;58.11;96904.09;5442645;26;20251;-69
2024/04/18 01:45:44;;;;;;;5.03;3.73;;;;;;;9.42;57.97;96911.47;5445270;26;20251;-70
2024/04/18 01:48:09;;;;;;;3.80;3.50;;;;;;;9.47;57.83;96901.34;5452356;26;20227;-73
2024/04/18 01:50:35;;;;;;;4.90;3.70;;;;;;;9.51;57.52;96902.72;5444874;26;20323;-70
2024/04/18 01:53:01;;;;;;;5.80;3.40;;;;;;;9.51;57.00;96907.94;5460596;26;20227;-70
2024/04/18 01:55:27;;;;;;;5.43;3.10;;;;;;;9.51;57.35;96911.34;5445464;26;20259;-71
2024/04/18 01:57:52;;;;;;;5.13;3.60;;;;;;;9.61;57.50;96906.03;5444388;26;20861;-71
2024/04/18 02:00:18;;;;;;;4.40;3.27;;;;;;;9.64;57.46;96910.97;5445036;26;20235;-72
2024/04/18 02:02:43;;;;;;;3.73;3.33;;;;;;;9.56;57.50;96913.53;5444912;26;20393;-72
2024/04/18 02:05:08;;;;;;;6.00;3.80;;;;;;;9.62;58.12;96923.38;5445875;26;20311;-69
2024/04/18 02:07:34;;;;;;;8.57;3.50;;;;;;;9.65;58.05;96915.22;5444214;26;20231;-74
2024/04/18 02:09:59;;;;;;;5.40;3.57;;;;;;;9.67;57.43;96921.13;5445599;26;20862;-69
2024/04/18 02:12:25;;;;;;;3.97;3.57;;;;;;;9.64;57.86;96918.00;5443441;26;20562;-69
2024/04/18 02:14:50;;;;;;;4.57;3.40;;;;;;;9.55;57.59;96924.13;5444835;26;20282;-70
2024/04/18 02:17:16;;;;;;;7.57;3.90;;;;;;;9.58;57.60;96926.47;5413466;26;20243;-70
2024/04/18 02:19:41;;;;;;;4.60;3.70;;;;;;;9.49;57.74;96938.66;5442492;26;20231;-70
2024/04/18 02:22:07;;;;;;;3.90;3.30;;;;;;;9.34;58.54;96930.53;5445309;26;20286;-70
2024/04/18 02:25:08;;;;;;;4.17;3.77;;;;;;;9.47;58.15;96930.13;5443433;26;20286;-69
2024/04/18 02:27:43;;;;;;;4.30;3.30;;;;;;;9.58;57.99;96926.47;5444554;26;20231;-69
2024/04/18 02:30:12;;;;;;;6.03;3.40;;;;;;;9.59;57.46;96931.53;5421563;26;20463;-69
2024/04/18 02:32:38;;;;;;;3.97;3.43;;;;;;;9.53;57.35;96926.91;5450650;26;21373;-69
2024/04/18 02:35:04;;;;;;;4.27;3.10;;;;;;;9.48;57.84;96937.00;5457830;26;20604;-70
2024/04/18 02:37:29;;;;;;;3.63;3.23;;;;;;;9.58;57.31;96927.28;5442894;26;20955;-70
2024/04/18 02:39:55;;;;;;;3.60;3.30;;;;;;;9.65;56.94;96930.94;5443299;26;20453;-70
2024/04/18 02:42:20;;;;;;;3.83;3.20;;;;;;;9.65;56.49;96928.31;5442364;26;20282;-70
2024/04/18 02:44:46;;;;;;;3.90;3.03;;;;;;;9.66;56.49;96923.88;5442991;26;20235;-69
2024/04/18 02:47:12;;;;;;;3.77;3.10;;;;;;;9.72;56.40;96931.16;5444859;26;20232;-70
2024/04/18 02:49:37;;;;;;;3.77;3.43;;;;;;;9.70;56.62;96930.47;5441755;26;20263;-69
2024/04/18 02:52:03;;;;;;;4.13;3.33;;;;;;;9.73;57.12;96934.56;5444894;26;20465;-68
2024/04/18 02:54:29;;;;;;;4.20;2.83;;;;;;;9.70;57.46;96930.47;5416710;26;20232;-70
2024/04/18 02:56:55;;;;;;;3.07;2.60;;;;;;;9.73;57.51;96934.56;5442085;26;20825;-72
2024/04/18 02:59:20;;;;;;;5.73;3.00;;;;;;;9.67;57.99;96936.84;5444247;26;20307;-72
2024/04/18 03:01:45;;;;;;;4.90;2.80;;;;;;;9.58;58.09;96932.50;5443022;26;20728;-69
2024/04/18 03:04:11;;;;;;;3.40;2.90;;;;;;;9.53;58.27;96937.38;5443661;26;20388;-70
2024/04/18 03:06:36;;;;;;;4.53;3.40;;;;;;;9.55;58.44;96948.53;5444401;26;20307;-70
2024/04/18 03:09:02;;;;;;;2.90;2.60;;;;;;;9.57;58.08;96946.59;5448858;26;20230;-69
2024/04/18 03:11:28;;;;;;;6.20;3.00;;;;;;;9.56;58.13;96939.72;5451918;26;20311;-71
2024/04/18 03:13:53;;;;;;;2.60;2.40;;;;;;;9.60;58.34;96943.63;5457209;26;20762;-69
2024/04/18 03:16:18;;;;;;;3.80;3.20;;;;;;;9.67;58.10;96947.31;5444329;26;20231;-70
2024/04/18 03:18:44;;;;;;;3.87;2.37;;;;;;;9.71;58.40;96936.50;5443705;26;20704;-71
2024/04/18 03:21:13;;;;;;;3.47;2.77;;;;;;;9.63;58.40;96940.72;5444620;26;20375;-70
2024/04/18 03:23:38;;;;;;;2.70;2.50;;;;;;;9.56;58.83;96944.09;5442027;26;20227;-71
2024/04/18 03:26:03;;;;;;;4.20;2.63;;;;;;;9.64;58.70;96946.78;5443218;26;20543;-71
2024/04/18 03:28:29;;;;;;;3.10;2.50;;;;;;;9.67;58.25;96942.06;5444599;26;20281;-71
2024/04/18 03:30:54;;;;;;;4.07;2.70;;;;;;;9.54;58.19;96946.88;5443246;26;20239;-70
2024/04/18 03:33:20;;;;;;;3.10;2.90;;;;;;;9.46;57.94;96952.88;5445399;26;20278;-71
2024/04/18 03:35:45;;;;;;;3.70;3.10;;;;;;;9.44;58.13;96951.38;5444025;26;20266;-68
2024/04/18 03:38:11;;;;;;;2.83;2.47;;;;;;;9.50;57.48;96945.53;5443599;26;20373;-69
2024/04/18 03:40:38;;;;;;;3.77;3.47;;;;;;;9.37;57.78;96951.97;5442803;26;20239;-71
2024/04/18 03:43:04;;;;;;;3.33;3.07;;;;;;;9.43;57.17;96962.81;5442268;26;20732;-69
2024/04/18 03:45:30;;;;;;;3.47;3.17;;;;;;;9.49;57.38;96954.34;5441074;26;20828;-70
2024/04/18 03:47:55;;;;;;;8.57;3.60;;;;;;;9.47;57.25;96953.69;5440820;26;20553;-69
2024/04/18 03:50:20;;;;;;;3.80;3.50;;;;;;;9.41;57.35;96956.91;5429384;26;20756;-71
2024/04/18 03:52:46;;;;;;;4.17;3.83;;;;;;;9.47;57.25;96957.13;5447499;26;20292;-69
2024/04/18 03:55:11;;;;;;;3.20;2.90;;;;;;;9.52;56.60;96965.31;5475480;26;20608;-68
2024/04/18 03:57:37;;;;;;;3.40;3.10;;;;;;;9.49;56.38;96959.59;5445975;26;20283;-73
2024/04/18 04:00:03;;;;;;;3.40;3.10;;;;;;;9.41;56.18;96962.94;5444478;26;20286;-69
2024/04/18 04:02:31;;;;;;;3.30;3.10;;;;;;;9.45;56.70;96969.53;5442945;26;20278;-69
2024/04/18 04:04:57;;;;;;;4.50;3.73;;;;;;;9.37;56.31;96966.84;5431559;26;20507;-70
2024/04/18 04:07:23;;;;;;;5.57;3.90;;;;;;;9.35;57.24;96969.59;5414286;26;21009;-71
2024/04/18 04:09:48;;;;;;;3.47;3.03;;;;;;;9.42;57.34;96969.81;5441466;26;20240;-70
2024/04/18 04:12:14;;;;;;;2.93;2.73;;;;;;;9.55;57.13;96963.38;5444329;26;20231;-69
2024/04/18 04:14:39;;;;;;;3.40;3.10;;;;;;;9.47;56.79;96972.81;5443699;26;20282;-69
2024/04/18 04:17:05;;;;;;;3.00;2.80;;;;;;;9.51;56.93;96970.72;5413235;26;20335;-69
2024/04/18 04:19:30;;;;;;;4.30;3.43;;;;;;;9.55;56.90;96973.84;5430228;26;20298;-72
2024/04/18 04:21:55;;;;;;;4.30;3.30;;;;;;;9.49;56.41;96975.28;5445295;26;20278;-69
2024/04/18 04:24:21;;;;;;;3.90;3.60;;;;;;;9.54;56.43;96978.28;5446534;26;20285;-69
2024/04/18 04:26:46;;;;;;;3.67;3.37;;;;;;;9.62;56.29;96980.94;5416356;26;20240;-71
2024/04/18 04:29:13;;;;;;;6.67;3.77;;;;;;;9.56;56.64;96993.81;5429991;26;20278;-69
2024/04/18 04:31:38;;;;;;;4.37;3.97;;;;;;;9.51;56.33;96989.03;5430072;26;20236;-71
2024/04/18 04:34:06;;;;;;;3.83;3.47;;;;;;;9.49;56.39;96996.22;5443973;26;20453;-69
2024/04/18 04:36:32;;;;;;;4.63;4.13;;;;;;;9.51;56.70;96989.03;5426227;26;20533;-70
2024/04/18 04:38:57;;;;;;;4.33;3.93;;;;;;;9.45;56.74;97000.91;5427048;26;21164;-71
2024/04/18 04:41:23;;;;;;;4.63;4.10;;;;;;;9.34;57.41;96999.34;5442551;26;20286;-69
2024/04/18 04:43:48;;;;;;;4.00;3.60;;;;;;;9.44;57.30;97003.69;5443531;26;20235;-71
2024/04/18 04:46:14;;;;;;;6.17;4.33;;;;;;;9.38;57.69;97011.16;5440098;26;20597;-70
2024/04/18 04:48:39;;;;;;;7.50;3.40;;;;;;;9.38;58.02;97016.38;5443581;26;20239;-74
2024/04/18 04:51:05;;;;;;;6.17;4.50;;;;;;;9.45;58.20;97026.28;5444301;26;20278;-68
2024/04/18 04:53:31;;;;;;;7.43;4.30;;;;;;;9.54;58.15;97020.13;5444203;26;20305;-72
2024/04/18 04:55:56;;;;;;;5.00;4.50;;;;;;;9.58;58.17;97024.06;5428302;26;20244;-69
2024/04/18 04:58:22;;;;;;;5.00;4.50;;;;;;;9.48;58.40;97018.09;5437121;26;20259;-72
2024/04/18 05:00:47;;;;;;;6.57;3.97;;;;;;;9.46;58.07;97025.28;5442337;26;20509;-69
2024/04/18 05:03:13;;;;;;;4.70;4.30;;;;;;;9.50;57.75;97034.47;5443861;26;20275;-71
2024/04/18 05:05:42;;;;;;;4.70;4.30;;;;;;;9.47;57.66;97033.00;5428916;26;20277;-72
2024/04/18 05:08:08;;;;;;;5.00;4.23;;;;;;;9.51;57.97;97033.50;5444817;26;20239;-68
2024/04/18 05:10:39;;;;;;;5.17;4.30;;;;;;;9.53;57.96;97039.41;5443806;26;20506;-72
2024/04/18 05:13:04;;;;;;;4.90;4.50;;;;;;;9.57;57.69;97043.38;5444898;26;20239;-70
2024/04/18 05:15:30;;;;;;;5.70;4.83;;;;;;;9.49;58.13;97043.28;5443320;26;20493;-69
2024/04/18 05:17:55;;;;;;;5.47;4.87;;;;;;;9.45;58.37;97048.00;5450113;26;20308;-70
2024/04/18 05:20:20;;;;;;;6.93;5.40;;;;;;;9.47;58.61;97051.31;5407599;26;20256;-69
2024/04/18 05:22:46;;;;;;;10.37;9.10;;;;;;;9.50;58.75;97042.31;5441285;26;20255;-69
2024/04/18 05:25:11;;;;;;;5.40;4.77;;;;;;;9.47;58.71;97055.69;5445585;26;20412;-69
2024/04/18 05:27:53;;;;;;;5.70;4.90;;;;;;;9.49;59.11;97053.75;5445379;26;20243;-69
2024/04/18 05:33:02;;;;;;;6.40;4.40;;;;;;;9.52;58.59;97056.91;5438938;26;20846;-70
2024/04/18 05:35:28;;;;;;;6.27;5.57;;;;;;;9.55;58.67;97061.03;5435121;26;20465;-72
2024/04/18 05:37:53;;;;;;;9.30;7.53;;;;;;;9.66;58.82;97071.25;5436123;26;20236;-70
2024/04/18 05:40:19;;;;;;;7.20;6.50;;;;;;;9.65;58.82;97069.63;5434011;26;20343;-71
2024/04/18 05:42:44;;;;;;;7.77;6.23;;;;;;;9.68;58.60;97068.50;5400892;26;20460;-70
2024/04/18 05:45:10;;;;;;;11.20;7.37;;;;;;;9.70;57.48;97077.03;5437922;26;20834;-69
2024/04/18 05:47:35;;;;;;;8.37;7.57;;;;;;;9.71;57.60;97083.06;5436784;26;20282;-71
2024/04/18 05:50:01;;;;;;;8.13;7.20;;;;;;;9.70;57.39;97081.44;5439124;26;20234;-70
2024/04/18 05:52:26;;;;;;;7.87;7.07;;;;;;;9.75;56.98;97087.03;5439553;26;20581;-72
2024/04/18 05:54:52;;;;;;;8.13;7.33;;;;;;;9.80;57.33;97092.66;5433279;26;20426;-70
2024/04/18 05:57:17;;;;;;;9.90;8.57;;;;;;;9.83;57.36;97097.56;5435443;26;20231;-70
2024/04/18 05:59:43;;;;;;;8.10;7.03;;;;;;;9.88;57.70;97094.53;5439250;26;20736;-70
2024/04/18 06:02:08;;;;;;;9.30;7.80;;;;;;;9.93;57.16;97100.09;5407751;26;20368;-70
2024/04/18 06:04:33;;;;;;;8.13;6.40;;;;;;;9.90;57.22;97103.03;5430652;26;20282;-68
2024/04/18 06:06:59;;;;;;;8.87;7.47;;;;;;;9.86;57.76;97107.75;5441117;26;20244;-71
2024/04/18 06:09:24;;;;;;;8.10;7.30;;;;;;;9.92;57.69;97109.78;5445095;26;20616;-73
2024/04/18 06:11:50;;;;;;;7.53;6.77;;;;;;;9.94;57.50;97109.59;5443723;26;20274;-71
2024/04/18 06:14:15;;;;;;;7.37;6.67;;;;;;;9.97;57.28;97099.66;5441270;26;20303;-69
2024/04/18 06:16:41;;;;;;;7.50;6.80;;;;;;;9.98;57.05;97116.19;5440026;26;20239;-70
2024/04/18 06:19:06;;;;;;;6.57;6.00;;;;;;;10.03;57.09;97124.41;5439433;26;20336;-70
2024/04/18 06:21:31;;;;;;;7.50;6.80;;;;;;;10.01;57.12;97115.06;5440085;26;20260;-70
2024/04/18 06:23:57;;;;;;;8.00;7.30;;;;;;;10.08;57.41;97121.38;5433403;26;20227;-68
2024/04/18 06:26:22;;;;;;;7.40;6.70;;;;;;;10.12;57.08;97120.06;5437626;26;20235;-71
2024/04/18 06:28:48;;;;;;;10.30;7.30;;;;;;;10.12;56.71;97122.69;5436830;26;20290;-73
2024/04/18 06:31:16;;;;;;;8.07;6.90;;;;;;;10.13;56.76;97129.56;5428692;26;20740;-69
2024/04/18 06:33:42;;;;;;;6.90;6.20;;;;;;;10.19;56.63;97123.75;5437516;26;20228;-70
2024/04/18 06:36:07;;;;;;;7.27;6.63;;;;;;;10.18;56.46;97129.13;5429362;26;20524;-69
2024/04/18 06:38:36;;;;;;;7.13;5.50;;;;;;;10.11;56.53;97131.50;5439946;26;20228;-69
2024/04/18 06:41:04;;;;;;;9.03;8.03;;;;;;;10.20;56.57;97133.25;5439443;26;20303;-69
2024/04/18 06:43:30;;;;;;;10.73;8.00;;;;;;;10.39;57.32;97142.75;5442142;26;20445;-70
2024/04/18 06:45:55;;;;;;;12.13;8.40;;;;;;;10.69;58.91;97145.06;5439793;26;20509;-72
2024/04/18 06:48:21;;;;;;;9.63;8.00;;;;;;;10.74;57.03;97148.03;5440672;26;20239;-72
2024/04/18 06:50:47;;;;;;;13.90;7.20;;;;;;;10.80;56.28;97150.06;5436977;26;20283;-68
2024/04/18 06:53:12;;;;;;;7.30;6.60;;;;;;;10.75;55.76;97144.44;5429252;26;20316;-69
2024/04/18 06:55:38;;;;;;;16.37;10.57;;;;;;;10.73;55.84;97151.63;5438750;26;20298;-70
2024/04/18 06:58:03;;;;;;;10.27;8.53;;;;;;;10.71;55.41;97148.38;5437057;26;20235;-70
2024/04/18 07:00:29;;;;;;;9.23;7.73;;;;;;;10.72;55.67;97152.59;5437757;26;20270;-70
2024/04/18 07:02:54;;;;;;;7.77;6.97;;;;;;;10.79;55.54;97155.44;5444781;26;20303;-71
2024/04/18 07:05:21;;;;;;;7.87;6.67;;;;;;;10.73;55.50;97159.50;5413857;26;20343;-70
2024/04/18 07:07:51;;;;;;;7.30;6.60;;;;;;;10.71;55.30;97170.16;5430903;26;20278;-69
2024/04/18 07:10:16;;;;;;;7.83;7.07;;;;;;;10.67;55.42;97170.63;5417078;26;20461;-70
2024/04/18 07:12:41;;;;;;;8.80;7.10;;;;;;;10.66;56.05;97168.97;5442160;26;20464;-70
2024/04/18 07:15:07;;;;;;;19.60;12.37;;;;;;;10.71;56.29;97169.34;5444730;26;20282;-69
2024/04/18 07:17:32;;;;;;;9.70;8.23;;;;;;;10.73;55.80;97177.84;5427641;26;20235;-70
2024/04/18 07:19:58;;;;;;;10.70;8.27;;;;;;;10.72;56.15;97187.53;5440667;26;20232;-70
2024/04/18 07:22:23;;;;;;;7.17;6.30;;;;;;;10.68;55.71;97185.38;5431756;26;20243;-69
2024/04/18 07:24:49;;;;;;;7.00;6.10;;;;;;;10.73;55.84;97191.78;5445011;26;20274;-70
2024/04/18 07:27:15;;;;;;;6.17;4.93;;;;;;;10.79;56.25;97197.38;5443471;26;20829;-70
2024/04/18 07:29:40;;;;;;;5.20;4.70;;;;;;;10.81;55.64;97196.28;5439991;26;20327;-68
2024/04/18 07:32:07;;;;;;;8.23;7.30;;;;;;;10.84;55.78;97201.19;5447379;26;20250;-69
2024/04/18 07:34:33;;;;;;;5.80;5.20;;;;;;;10.83;55.36;97198.72;5446830;26;20243;-69
2024/04/18 07:36:59;;;;;;;4.23;3.83;;;;;;;10.78;55.28;97207.06;5447371;26;20456;-69
2024/04/18 07:39:25;;;;;;;6.57;5.77;;;;;;;10.83;55.28;97209.22;5444845;26;20557;-70
2024/04/18 07:41:50;;;;;;;5.00;4.50;;;;;;;10.82;55.15;97213.66;5402545;26;20326;-69
2024/04/18 07:44:16;;;;;;;5.60;4.37;;;;;;;10.71;55.31;97216.53;5435496;26;20547;-68
2024/04/18 07:46:42;;;;;;;3.73;3.43;;;;;;;10.68;55.27;97224.69;5427369;26;20619;-71
2024/04/18 07:49:08;;;;;;;4.47;4.07;;;;;;;10.75;55.75;97226.53;5441679;26;21110;-70
2024/04/18 07:51:33;;;;;;;4.50;3.50;;;;;;;10.74;55.34;97230.13;5442942;26;20607;-69
2024/04/18 07:53:58;;;;;;;3.80;3.40;;;;;;;10.83;55.51;97231.03;5443827;26;20506;-70
2024/04/18 07:56:24;;;;;;;4.03;3.73;;;;;;;10.90;55.46;97232.03;5439961;26;20736;-71
2024/04/18 07:58:49;;;;;;;4.30;3.90;;;;;;;10.96;55.58;97240.28;5437332;26;20296;-70
2024/04/18 08:01:16;;;;;;;3.87;3.57;;;;;;;10.96;54.94;97245.53;5428952;26;20324;-70
2024/04/18 08:03:41;;;;;;;3.50;3.20;;;;;;;10.87;54.72;97242.84;5443540;26;20340;-70
2024/04/18 08:06:07;;;;;;;3.27;3.07;;;;;;;10.85;54.76;97238.72;5446954;26;20539;-71
2024/04/18 08:08:32;;;;;;;3.63;3.33;;;;;;;10.86;54.91;97241.19;5447699;26;20335;-70
2024/04/18 08:10:58;;;;;;;4.33;3.60;;;;;;;10.95;55.35;97239.44;5445335;26;20251;-70
2024/04/18 08:13:23;;;;;;;5.00;4.50;;;;;;;11.03;55.30;97247.34;5447396;26;20282;-71
2024/04/18 08:15:49;;;;;;;6.10;5.40;;;;;;;11.14;55.70;97253.34;5444598;26;20239;-68
2024/04/18 08:18:16;;;;;;;5.97;4.90;;;;;;;11.21;55.34;97255.16;5442836;26;21110;-70
2024/04/18 08:20:43;;;;;;;5.73;5.23;;;;;;;11.30;55.25;97257.88;5444845;26;20270;-68
2024/04/18 08:23:08;;;;;;;6.50;5.40;;;;;;;11.44;55.44;97265.16;5442807;26;20468;-70
2024/04/18 08:25:34;;;;;;;7.10;5.93;;;;;;;11.57;55.09;97263.91;5444030;26;20804;-69
2024/04/18 08:27:59;;;;;;;5.90;5.30;;;;;;;11.70;54.97;97266.06;5441504;26;20232;-71
2024/04/18 08:30:25;;;;;;;5.73;4.70;;;;;;;11.75;54.94;97267.25;5412035;26;20716;-71
2024/04/18 08:32:50;;;;;;;5.40;4.90;;;;;;;11.80;54.60;97275.50;5410846;26;20235;-69
2024/04/18 08:35:18;;;;;;;5.73;5.17;;;;;;;11.92;54.43;97272.56;5441725;26;20253;-71
2024/04/18 08:37:44;;;;;;;5.53;4.50;;;;;;;11.94;54.36;97281.94;5442730;26;20247;-70
2024/04/18 08:40:10;;;;;;;6.60;5.70;;;;;;;11.97;53.82;97276.38;5444221;26;20564;-69
2024/04/18 08:42:35;;;;;;;7.60;6.80;;;;;;;12.03;54.08;97284.63;5446755;26;20243;-70
2024/04/18 08:45:01;;;;;;;10.17;8.80;;;;;;;12.06;53.83;97279.03;5446103;26;20796;-69
2024/04/18 08:47:27;;;;;;;8.40;7.03;;;;;;;12.03;52.98;97282.81;5444101;26;20231;-72
2024/04/18 08:49:54;;;;;;;4.47;4.17;;;;;;;11.92;52.47;97288.31;5445096;26;20637;-70
2024/04/18 08:52:19;;;;;;;4.50;4.20;;;;;;;11.79;53.09;97300.09;5445525;26;20449;-70
2024/04/18 08:54:45;;;;;;;4.60;4.20;;;;;;;11.69;53.46;97296.78;5443976;26;20846;-70
2024/04/18 08:57:15;;;;;;;4.47;4.07;;;;;;;11.64;53.12;97301.66;5414657;26;20243;-69
2024/04/18 08:59:42;;;;;;;5.23;4.73;;;;;;;11.50;53.19;97301.25;5446300;26;20232;-70
2024/04/18 09:02:08;;;;;;;4.90;4.37;;;;;;;11.48;53.27;97308.47;5444832;26;20472;-69
2024/04/18 09:04:34;;;;;;;4.07;3.77;;;;;;;11.45;53.05;97313.22;5446029;26;20643;-70
2024/04/18 09:07:00;;;;;;;11.43;4.50;;;;;;;11.45;53.75;97314.03;5446507;26;20360;-70
2024/04/18 09:09:26;;;;;;;4.47;4.07;;;;;;;11.40;53.28;97315.50;5445145;26;20461;-69
2024/04/18 09:11:51;;;;;;;5.80;4.83;;;;;;;11.29;53.09;97319.19;5447346;26;21321;-71
2024/04/18 09:14:17;;;;;;;4.90;4.40;;;;;;;11.25;53.46;97318.66;5444758;26;20231;-71
2024/04/18 09:16:43;;;;;;;5.40;4.90;;;;;;;11.25;53.42;97320.47;5446608;26;20228;-70
2024/04/18 09:19:08;;;;;;;5.50;5.00;;;;;;;11.30;53.84;97326.06;5444675;26;20367;-71
2024/04/18 09:21:34;;;;;;;4.67;4.27;;;;;;;11.33;54.06;97325.78;5447205;26;20585;-72
2024/04/18 09:24:00;;;;;;;4.87;4.47;;;;;;;11.36;54.53;97323.66;5446543;26;20231;-71
2024/04/18 09:26:26;;;;;;;4.63;4.23;;;;;;;11.47;54.50;97321.75;5447061;26;20270;-72
2024/04/18 09:28:51;;;;;;;4.80;4.40;;;;;;;11.62;54.52;97314.13;5446705;26;20343;-70
2024/04/18 09:31:19;;;;;;;5.10;4.60;;;;;;;11.81;53.33;97321.78;5443480;26;20480;-70
2024/04/18 09:33:46;;;;;;;5.20;4.60;;;;;;;12.21;53.11;97318.66;5445244;26;20282;-70
2024/04/18 09:36:12;;;;;;;4.50;4.10;;;;;;;12.56;51.89;97317.56;5445966;26;20517;-70
2024/04/18 09:38:48;;;;;;;4.70;4.27;;;;;;;12.83;51.00;97322.72;5446676;26;20505;-69
2024/04/18 09:41:20;;;;;;;5.40;4.90;;;;;;;12.92;50.04;97315.66;5446629;26;20472;-70
2024/04/18 09:43:49;;;;;;;6.67;4.87;;;;;;;12.99;49.35;97317.44;5421050;26;20453;-70
2024/04/18 09:46:15;;;;;;;5.97;5.37;;;;;;;12.96;49.27;97322.22;5445354;26;20512;-68
2024/04/18 09:48:40;;;;;;;5.20;4.70;;;;;;;12.95;48.05;97316.13;5443719;26;21069;-69
2024/04/18 09:51:06;;;;;;;5.40;4.90;;;;;;;13.36;48.18;97313.44;5445624;26;20460;-70
2024/04/18 09:53:32;;;;;;;5.00;4.50;;;;;;;13.76;48.12;97320.63;5444767;26;20235;-70
2024/04/18 09:55:58;;;;;;;4.67;4.20;;;;;;;14.41;47.21;97319.53;5446682;26;20311;-72
2024/04/18 09:58:26;;;;;;;4.50;4.10;;;;;;;15.10;46.07;97317.91;5444463;26;20239;-71
2024/04/18 10:00:52;;;;;;;5.33;3.33;;;;;;;15.58;43.73;97319.44;5444632;26;20509;-69
2024/04/18 10:03:18;;;;;;;3.87;3.57;;;;;;;15.57;42.61;97325.72;5444120;26;20805;-69
2024/04/18 10:05:48;;;;;;;3.80;3.40;;;;;;;15.44;42.38;97321.88;5444847;26;20240;-69
2024/04/18 10:08:16;;;;;;;4.30;3.87;;;;;;;15.23;42.32;97329.69;5444946;26;21072;-70
2024/04/18 10:10:42;;;;;;;4.20;3.90;;;;;;;15.31;43.42;97330.41;5413161;26;20507;-71
2024/04/18 10:13:08;;;;;;;3.30;3.10;;;;;;;15.61;42.25;97319.88;5445790;26;20799;-70
2024/04/18 10:15:34;;;;;;;5.70;4.00;;;;;;;15.56;41.11;97335.47;5444143;26;20481;-69
2024/04/18 10:17:59;;;;;;;4.20;3.40;;;;;;;15.47;41.76;97342.66;5445256;26;20457;-70
2024/04/18 10:20:28;;;;;;;3.80;3.50;;;;;;;15.59;41.90;97329.00;5444992;26;20285;-73
2024/04/18 10:23:00;;;;;;;4.63;3.50;;;;;;;15.42;41.49;97345.00;5445833;26;20236;-70
2024/04/18 10:25:26;;;;;;;5.00;4.60;;;;;;;15.07;40.23;97344.66;5444130;26;20856;-71
2024/04/18 10:27:51;;;;;;;4.80;4.40;;;;;;;14.73;40.97;97346.72;5441685;26;20461;-72
2024/04/18 10:30:17;;;;;;;4.73;4.07;;;;;;;14.34;42.65;97362.56;5442967;26;20281;-70
2024/04/18 10:32:44;;;;;;;8.23;3.90;;;;;;;13.56;44.85;97381.59;5445408;26;20368;-70
2024/04/18 10:35:10;;;;;;;2.93;2.73;;;;;;;12.86;47.02;97390.75;5445055;26;20235;-71
2024/04/18 10:37:36;;;;;;;3.10;2.90;;;;;;;12.41;49.17;97408.59;5445211;26;20457;-71
2024/04/18 10:40:02;;;;;;;3.30;2.20;;;;;;;12.18;48.78;97411.75;5443895;26;20515;-70
2024/04/18 10:42:35;;;;;;;3.17;2.30;;;;;;;11.98;50.52;97417.25;5445294;26;20287;-70
2024/04/18 10:45:00;;;;;;;1.93;1.83;;;;;;;11.86;51.12;97409.75;5445709;26;20456;-71
2024/04/18 10:47:25;;;;;;;1.97;1.67;;;;;;;11.80;51.14;97411.19;5442790;26;20582;-70
2024/04/18 10:49:51;;;;;;;2.03;1.93;;;;;;;11.77;52.21;97406.28;5443487;26;20247;-69
2024/04/18 10:52:17;;;;;;;2.30;2.10;;;;;;;11.82;52.14;97417.97;5445563;26;20235;-69
2024/04/18 10:54:42;;;;;;;2.30;2.20;;;;;;;12.04;53.19;97410.53;5445594;26;20235;-71
2024/04/18 10:57:08;;;;;;;2.63;2.43;;;;;;;12.26;53.07;97403.91;5445076;26;20368;-69
2024/04/18 10:59:38;;;;;;;3.17;2.87;;;;;;;12.55;52.93;97404.50;5445746;26;20247;-70
2024/04/18 11:02:07;;;;;;;5.40;3.20;;;;;;;12.81;52.56;97400.94;5438429;26;20273;-71
2024/04/18 11:04:33;;;;;;;3.27;3.03;;;;;;;12.98;52.16;97404.44;5433360;26;20934;-71
2024/04/18 11:07:00;;;;;;;3.97;3.67;;;;;;;13.03;51.26;97402.94;5446860;26;20539;-70
2024/04/18 11:09:25;;;;;;;3.53;3.20;;;;;;;13.12;51.06;97405.56;5409037;26;20849;-70
2024/04/18 11:11:51;;;;;;;6.10;3.27;;;;;;;13.12;51.47;97402.94;5449365;26;20449;-71
2024/04/18 11:14:17;;;;;;;2.90;2.70;;;;;;;13.18;51.63;97402.31;5448689;26;20736;-70
2024/04/18 11:16:44;;;;;;;4.23;2.60;;;;;;;13.13;50.41;97394.91;5446922;26;20235;-68
2024/04/18 11:19:09;;;;;;;2.70;2.50;;;;;;;13.26;49.42;97398.84;5446572;26;20480;-69
2024/04/18 11:21:35;;;;;;;3.13;2.90;;;;;;;13.26;50.95;97396.22;5448452;26;20509;-70
2024/04/18 11:24:00;;;;;;;3.60;3.30;;;;;;;13.42;51.42;97390.97;5446967;26;20247;-69
2024/04/18 11:26:26;;;;;;;4.87;3.20;;;;;;;13.74;51.19;97388.44;5446388;26;20286;-70
2024/04/18 11:28:55;;;;;;;5.33;3.97;;;;;;;14.01;49.47;97389.03;5448794;26;20325;-70
2024/04/18 11:31:21;;;;;;;4.40;4.00;;;;;;;14.34;48.40;97386.31;5445388;26;20286;-71
2024/04/18 11:33:46;;;;;;;3.80;3.50;;;;;;;14.62;47.91;97380.56;5448107;26;20441;-71